Terminal Aerodrome Forecast
Issued by NWS Huntsville, AL

Home | Current Version | Previous Version | Text Only | Print | Product List | Glossary On
Versions: 1 2 3 4 5 6 7 8 9 10 11 12 13
000
FTUS44 KHUN 301728
TAFMSL
TAF
KMSL 301728Z 3018/3118 35005KT P6SM SCT050 SCT100
     FM310100 00000KT P6SM FEW250
     FM311600 VRB03KT P6SM FEW040 SCT250=

USA.gov is the U.S. government's official web portal to all federal, state and local government web resources and services.